PWSweather.com
Personal Weather Stations
Station Observations
KOMOKA2
Middlesex Centre, Komoka, ON N0L 1R0

Middlesex CentreKomoka, ON N0L 1R0

Lat: 42.9542444, Lon: -81.4348861

Elevation: 805

Station Type: Davis VP2 w/ Vue Console

Latest ConditionsUpdated 8:20:18 AM EST Thursday, Nov 14, 2019
Currently Today's Max Today's Min Today's Average
Temperature 25.4°F-3.7°C 27.6°F-2.4°C 25.2°F-3.8°C 26.4°F-3.1°C
Dew Point 16.0°F-8.9°C 17.0°F-8.3°C 15.0°F-9.4°C 16.0°F-8.9°C
Winds 1.6 mph N2.6 kmh N 3.0 mph -4.8 kmh - - 1.3 mph 2.1 kmh
Wind Gusts 5.0 mph8.0 kmh 12.0 mph19.3 kmh - -
Humidity 68% 69% 60% 65%
Pressure 30.11 in1019.6 mb 30.11 in1019.6 mb 30.07 in1018.3 mb -
Hour Temp Dew Point Humidity Winds Wind Gusts Pressure Precip Precip Rate Daily Precip Total
08:20 AM 25.4°F-3.7°C 16.0°F-8.9°C 68% 1.6 mph N2.6 kmh N 5.0 mph8.0 kmh 30.11 in1019.6 mb 0.00 in0.0 mm 0.00 in0.0 mm 0.00 in0.0 mm
08:15 AM 25.3°F-3.7°C 16.0°F-8.9°C 68% 1.5 mph N2.4 kmh N 5.0 mph8.0 kmh 30.11 in1019.6 mb 0.00 in0.0 mm 0.00 in0.0 mm 0.00 in0.0 mm
08:10 AM 25.3°F-3.7°C 16.0°F-8.9°C 68% 1.6 mph N2.6 kmh N 4.0 mph6.4 kmh 30.11 in1019.6 mb 0.00 in0.0 mm 0.00 in0.0 mm 0.00 in0.0 mm
08:05 AM 25.3°F-3.7°C 16.0°F-8.9°C 68% 1.4 mph N2.3 kmh N 4.0 mph6.4 kmh 30.10 in1019.3 mb 0.00 in0.0 mm 0.00 in0.0 mm 0.00 in0.0 mm
08:00 AM 25.2°F-3.8°C 16.0°F-8.9°C 68% 1.0 mph N1.6 kmh N 4.0 mph6.4 kmh 30.10 in1019.3 mb 0.00 in0.0 mm 0.00 in0.0 mm 0.00 in0.0 mm
07:55 AM 25.2°F-3.8°C 16.0°F-8.9°C 68% 0.8 mph N1.3 kmh N 3.0 mph4.8 kmh 30.11 in1019.6 mb 0.00 in0.0 mm 0.00 in0.0 mm 0.00 in0.0 mm
07:50 AM 25.2°F-3.8°C 16.0°F-8.9°C 68% 1.0 mph N1.6 kmh N 5.0 mph8.0 kmh 30.10 in1019.3 mb 0.00 in0.0 mm 0.00 in0.0 mm 0.00 in0.0 mm
07:45 AM 25.2°F-3.8°C 16.0°F-8.9°C 68% 0.7 mph N1.1 kmh N 5.0 mph8.0 kmh 30.10 in1019.3 mb 0.00 in0.0 mm 0.00 in0.0 mm 0.00 in0.0 mm
07:40 AM 25.2°F-3.8°C 16.0°F-8.9°C 68% 0.5 mph N0.8 kmh N 3.0 mph4.8 kmh 30.10 in1019.3 mb 0.00 in0.0 mm 0.00 in0.0 mm 0.00 in0.0 mm
07:35 AM 25.2°F-3.8°C 16.0°F-8.9°C 68% 0.6 mph N1.0 kmh N 4.0 mph6.4 kmh 30.10 in1019.3 mb 0.00 in0.0 mm 0.00 in0.0 mm 0.00 in0.0 mm
07:30 AM 25.3°F-3.7°C 16.0°F-8.9°C 68% 0.2 mph N0.3 kmh N 4.0 mph6.4 kmh 30.09 in1019.0 mb 0.00 in0.0 mm 0.00 in0.0 mm 0.00 in0.0 mm
07:25 AM 25.2°F-3.8°C 16.0°F-8.9°C 68% 0.4 mph N0.6 kmh N 2.0 mph3.2 kmh 30.09 in1019.0 mb 0.00 in0.0 mm 0.00 in0.0 mm 0.00 in0.0 mm
07:20 AM 25.3°F-3.7°C 16.0°F-8.9°C 68% 1.1 mph N1.8 kmh N 3.0 mph4.8 kmh 30.09 in1019.0 mb 0.00 in0.0 mm 0.00 in0.0 mm 0.00 in0.0 mm
07:15 AM 25.3°F-3.7°C 16.0°F-8.9°C 68% 1.0 mph N1.6 kmh N 3.0 mph4.8 kmh 30.09 in1019.0 mb 0.00 in0.0 mm 0.00 in0.0 mm 0.00 in0.0 mm
07:10 AM 25.4°F-3.7°C 16.0°F-8.9°C 68% 0.8 mph N1.3 kmh N 3.0 mph4.8 kmh 30.09 in1019.0 mb 0.00 in0.0 mm 0.00 in0.0 mm 0.00 in0.0 mm
07:05 AM 25.4°F-3.7°C 16.0°F-8.9°C 68% 1.2 mph N1.9 kmh N 5.0 mph8.0 kmh 30.09 in1019.0 mb 0.00 in0.0 mm 0.00 in0.0 mm 0.00 in0.0 mm
07:00 AM 25.4°F-3.7°C 16.0°F-8.9°C 68% 1.1 mph N1.8 kmh N 5.0 mph8.0 kmh 30.09 in1019.0 mb 0.00 in0.0 mm 0.00 in0.0 mm 0.00 in0.0 mm
06:55 AM 25.5°F-3.6°C 16.0°F-8.9°C 68% 1.2 mph N1.9 kmh N 4.0 mph6.4 kmh 30.09 in1019.0 mb 0.00 in0.0 mm 0.00 in0.0 mm 0.00 in0.0 mm
06:50 AM 25.5°F-3.6°C 16.0°F-8.9°C 68% 1.3 mph N2.1 kmh N 4.0 mph6.4 kmh 30.09 in1019.0 mb 0.00 in0.0 mm 0.00 in0.0 mm 0.00 in0.0 mm
06:45 AM 25.6°F-3.6°C 16.0°F-8.9°C 68% 1.1 mph N1.8 kmh N 4.0 mph6.4 kmh 30.09 in1019.0 mb 0.00 in0.0 mm 0.00 in0.0 mm 0.00 in0.0 mm
06:40 AM 25.6°F-3.6°C 16.0°F-8.9°C 68% 1.5 mph N2.4 kmh N 5.0 mph8.0 kmh 30.09 in1019.0 mb 0.00 in0.0 mm 0.00 in0.0 mm 0.00 in0.0 mm
06:35 AM 25.6°F-3.6°C 16.0°F-8.9°C 68% 1.3 mph N2.1 kmh N 5.0 mph8.0 kmh 30.09 in1019.0 mb 0.00 in0.0 mm 0.00 in0.0 mm 0.00 in0.0 mm
06:30 AM 25.6°F-3.6°C 16.0°F-8.9°C 68% 1.4 mph N2.3 kmh N 6.0 mph9.7 kmh 30.09 in1019.0 mb 0.00 in0.0 mm 0.00 in0.0 mm 0.00 in0.0 mm
06:25 AM 25.6°F-3.6°C 16.0°F-8.9°C 68% 1.3 mph N2.1 kmh N 6.0 mph9.7 kmh 30.09 in1019.0 mb 0.00 in0.0 mm 0.00 in0.0 mm 0.00 in0.0 mm
06:20 AM 25.7°F-3.5°C 16.0°F-8.9°C 68% 1.0 mph N1.6 kmh N 5.0 mph8.0 kmh 30.09 in1019.0 mb 0.00 in0.0 mm 0.00 in0.0 mm 0.00 in0.0 mm
06:15 AM 25.7°F-3.5°C 17.0°F-8.3°C 69% 1.2 mph N1.9 kmh N 5.0 mph8.0 kmh 30.09 in1019.0 mb 0.00 in0.0 mm 0.00 in0.0 mm 0.00 in0.0 mm
06:10 AM 25.7°F-3.5°C 17.0°F-8.3°C 69% 1.0 mph N1.6 kmh N 4.0 mph6.4 kmh 30.09 in1019.0 mb 0.00 in0.0 mm 0.00 in0.0 mm 0.00 in0.0 mm
06:05 AM 25.8°F-3.4°C 17.0°F-8.3°C 69% 1.2 mph N1.9 kmh N 4.0 mph6.4 kmh 30.09 in1019.0 mb 0.00 in0.0 mm 0.00 in0.0 mm 0.00 in0.0 mm
06:00 AM 25.7°F-3.5°C 17.0°F-8.3°C 69% 0.9 mph N1.4 kmh N 4.0 mph6.4 kmh 30.09 in1019.0 mb 0.00 in0.0 mm 0.00 in0.0 mm 0.00 in0.0 mm
05:55 AM 25.8°F-3.4°C 17.0°F-8.3°C 69% 0.6 mph N1.0 kmh N 4.0 mph6.4 kmh 30.09 in1019.0 mb 0.00 in0.0 mm 0.00 in0.0 mm 0.00 in0.0 mm
05:50 AM 25.8°F-3.4°C 17.0°F-8.3°C 69% 0.9 mph N1.4 kmh N 4.0 mph6.4 kmh 30.09 in1019.0 mb 0.00 in0.0 mm 0.00 in0.0 mm 0.00 in0.0 mm
05:45 AM 25.8°F-3.4°C 17.0°F-8.3°C 69% 1.0 mph N1.6 kmh N 4.0 mph6.4 kmh 30.09 in1019.0 mb 0.00 in0.0 mm 0.00 in0.0 mm 0.00 in0.0 mm
05:40 AM 25.8°F-3.4°C 17.0°F-8.3°C 69% 1.1 mph N1.8 kmh N 3.0 mph4.8 kmh 30.09 in1019.0 mb 0.00 in0.0 mm 0.00 in0.0 mm 0.00 in0.0 mm
05:35 AM 25.8°F-3.4°C 17.0°F-8.3°C 69% 1.1 mph N1.8 kmh N 4.0 mph6.4 kmh 30.09 in1019.0 mb 0.00 in0.0 mm 0.00 in0.0 mm 0.00 in0.0 mm
05:30 AM 25.8°F-3.4°C 17.0°F-8.3°C 69% 1.4 mph N2.3 kmh N 4.0 mph6.4 kmh 30.09 in1019.0 mb 0.00 in0.0 mm 0.00 in0.0 mm 0.00 in0.0 mm
05:25 AM 25.8°F-3.4°C 17.0°F-8.3°C 69% 1.6 mph N2.6 kmh N 5.0 mph8.0 kmh 30.08 in1018.6 mb 0.00 in0.0 mm 0.00 in0.0 mm 0.00 in0.0 mm
05:20 AM 25.8°F-3.4°C 17.0°F-8.3°C 69% 1.4 mph N2.3 kmh N 6.0 mph9.7 kmh 30.08 in1018.6 mb 0.00 in0.0 mm 0.00 in0.0 mm 0.00 in0.0 mm
05:15 AM 25.9°F-3.4°C 17.0°F-8.3°C 69% 1.4 mph N2.3 kmh N 6.0 mph9.7 kmh 30.08 in1018.6 mb 0.00 in0.0 mm 0.00 in0.0 mm 0.00 in0.0 mm
05:10 AM 25.9°F-3.4°C 17.0°F-8.3°C 68% 1.6 mph N2.6 kmh N 5.0 mph8.0 kmh 30.08 in1018.6 mb 0.00 in0.0 mm 0.00 in0.0 mm 0.00 in0.0 mm
05:05 AM 25.9°F-3.4°C 17.0°F-8.3°C 68% 1.8 mph N2.9 kmh N 5.0 mph8.0 kmh 30.08 in1018.6 mb 0.00 in0.0 mm 0.00 in0.0 mm 0.00 in0.0 mm
05:00 AM 25.9°F-3.4°C 17.0°F-8.3°C 68% 2.0 mph N3.2 kmh N 6.0 mph9.7 kmh 30.08 in1018.6 mb 0.00 in0.0 mm 0.00 in0.0 mm 0.00 in0.0 mm
04:55 AM 25.9°F-3.4°C 17.0°F-8.3°C 68% 1.9 mph N3.1 kmh N 6.0 mph9.7 kmh 30.07 in1018.3 mb 0.00 in0.0 mm 0.00 in0.0 mm 0.00 in0.0 mm
04:50 AM 25.9°F-3.4°C 17.0°F-8.3°C 68% 1.6 mph N2.6 kmh N 4.0 mph6.4 kmh 30.07 in1018.3 mb 0.00 in0.0 mm 0.00 in0.0 mm 0.00 in0.0 mm
04:45 AM 26.0°F-3.3°C 17.0°F-8.3°C 68% 1.7 mph N2.7 kmh N 5.0 mph8.0 kmh 30.07 in1018.3 mb 0.00 in0.0 mm 0.00 in0.0 mm 0.00 in0.0 mm
04:40 AM 26.0°F-3.3°C 17.0°F-8.3°C 68% 2.1 mph N3.4 kmh N 7.0 mph11.3 kmh 30.07 in1018.3 mb 0.00 in0.0 mm 0.00 in0.0 mm 0.00 in0.0 mm
04:35 AM 26.1°F-3.3°C 17.0°F-8.3°C 68% 1.6 mph N2.6 kmh N 7.0 mph11.3 kmh 30.07 in1018.3 mb 0.00 in0.0 mm 0.00 in0.0 mm 0.00 in0.0 mm
04:30 AM 26.1°F-3.3°C 16.0°F-8.9°C 67% 1.2 mph N1.9 kmh N 3.0 mph4.8 kmh 30.07 in1018.3 mb 0.00 in0.0 mm 0.00 in0.0 mm 0.00 in0.0 mm
04:25 AM 26.2°F-3.2°C 17.0°F-8.3°C 67% 1.6 mph N2.6 kmh N 4.0 mph6.4 kmh 30.07 in1018.3 mb 0.00 in0.0 mm 0.00 in0.0 mm 0.00 in0.0 mm
04:20 AM 26.3°F-3.2°C 17.0°F-8.3°C 67% 1.6 mph N2.6 kmh N 5.0 mph8.0 kmh 30.07 in1018.3 mb 0.00 in0.0 mm 0.00 in0.0 mm 0.00 in0.0 mm
04:15 AM 26.3°F-3.2°C 17.0°F-8.3°C 67% 1.9 mph N3.1 kmh N 6.0 mph9.7 kmh 30.07 in1018.3 mb 0.00 in0.0 mm 0.00 in0.0 mm 0.00 in0.0 mm
04:10 AM 26.3°F-3.2°C 16.0°F-8.9°C 66% 2.5 mph N4.0 kmh N 6.0 mph9.7 kmh 30.07 in1018.3 mb 0.00 in0.0 mm 0.00 in0.0 mm 0.00 in0.0 mm
04:05 AM 26.3°F-3.2°C 16.0°F-8.9°C 66% 2.1 mph N3.4 kmh N 9.0 mph14.5 kmh 30.07 in1018.3 mb 0.00 in0.0 mm 0.00 in0.0 mm 0.00 in0.0 mm
04:00 AM 26.3°F-3.2°C 16.0°F-8.9°C 65% 1.3 mph N2.1 kmh N 7.0 mph11.3 kmh 30.07 in1018.3 mb 0.00 in0.0 mm 0.00 in0.0 mm 0.00 in0.0 mm
03:55 AM 26.4°F-3.1°C 16.0°F-8.9°C 65% 0.9 mph N1.4 kmh N 4.0 mph6.4 kmh 30.07 in1018.3 mb 0.00 in0.0 mm 0.00 in0.0 mm 0.00 in0.0 mm
03:50 AM 26.4°F-3.1°C 16.0°F-8.9°C 65% 0.4 mph N0.6 kmh N 3.0 mph4.8 kmh 30.07 in1018.3 mb 0.00 in0.0 mm 0.00 in0.0 mm 0.00 in0.0 mm
03:45 AM 26.4°F-3.1°C 16.0°F-8.9°C 65% 0.9 mph N1.4 kmh N 3.0 mph4.8 kmh 30.07 in1018.3 mb 0.00 in0.0 mm 0.00 in0.0 mm 0.00 in0.0 mm
03:40 AM 26.5°F-3.1°C 16.0°F-8.9°C 65% 1.4 mph N2.3 kmh N 5.0 mph8.0 kmh 30.07 in1018.3 mb 0.00 in0.0 mm 0.00 in0.0 mm 0.00 in0.0 mm
03:35 AM 26.6°F-3.0°C 16.0°F-8.9°C 64% 0.9 mph N1.4 kmh N 5.0 mph8.0 kmh 30.07 in1018.3 mb 0.00 in0.0 mm 0.00 in0.0 mm 0.00 in0.0 mm
03:30 AM 26.7°F-2.9°C 16.0°F-8.9°C 64% 1.0 mph N1.6 kmh N 5.0 mph8.0 kmh 30.08 in1018.6 mb 0.00 in0.0 mm 0.00 in0.0 mm 0.00 in0.0 mm
03:25 AM 26.8°F-2.9°C 16.0°F-8.9°C 64% 1.1 mph N1.8 kmh N 5.0 mph8.0 kmh 30.08 in1018.6 mb 0.00 in0.0 mm 0.00 in0.0 mm 0.00 in0.0 mm
03:20 AM 26.8°F-2.9°C 16.0°F-8.9°C 63% 1.6 mph N2.6 kmh N 6.0 mph9.7 kmh 30.08 in1018.6 mb 0.00 in0.0 mm 0.00 in0.0 mm 0.00 in0.0 mm
03:15 AM 26.9°F-2.8°C 16.0°F-8.9°C 63% 2.2 mph N3.5 kmh N 7.0 mph11.3 kmh 30.08 in1018.6 mb 0.00 in0.0 mm 0.00 in0.0 mm 0.00 in0.0 mm
03:10 AM 27.0°F-2.8°C 15.0°F-9.4°C 62% 2.4 mph N3.9 kmh N 8.0 mph12.9 kmh 30.09 in1019.0 mb 0.00 in0.0 mm 0.00 in0.0 mm 0.00 in0.0 mm
03:05 AM 27.1°F-2.7°C 15.0°F-9.4°C 61% 2.1 mph N3.4 kmh N 8.0 mph12.9 kmh 30.09 in1019.0 mb 0.00 in0.0 mm 0.00 in0.0 mm 0.00 in0.0 mm
03:00 AM 27.2°F-2.7°C 15.0°F-9.4°C 61% 2.3 mph N3.7 kmh N 7.0 mph11.3 kmh 30.09 in1019.0 mb 0.00 in0.0 mm 0.00 in0.0 mm 0.00 in0.0 mm
02:55 AM 27.2°F-2.7°C 15.0°F-9.4°C 60% 2.6 mph N4.2 kmh N 7.0 mph11.3 kmh 30.09 in1019.0 mb 0.00 in0.0 mm 0.00 in0.0 mm 0.00 in0.0 mm
02:50 AM 27.2°F-2.7°C 15.0°F-9.4°C 60% 2.2 mph N3.5 kmh N 8.0 mph12.9 kmh 30.09 in1019.0 mb 0.00 in0.0 mm 0.00 in0.0 mm 0.00 in0.0 mm
02:45 AM 27.2°F-2.7°C 15.0°F-9.4°C 60% 2.1 mph N3.4 kmh N 8.0 mph12.9 kmh 30.09 in1019.0 mb 0.00 in0.0 mm 0.00 in0.0 mm 0.00 in0.0 mm
02:40 AM 27.2°F-2.7°C 15.0°F-9.4°C 60% 1.9 mph N3.1 kmh N 8.0 mph12.9 kmh 30.09 in1019.0 mb 0.00 in0.0 mm 0.00 in0.0 mm 0.00 in0.0 mm
02:35 AM 27.3°F-2.6°C 15.0°F-9.4°C 60% 1.9 mph N3.1 kmh N 5.0 mph8.0 kmh 30.09 in1019.0 mb 0.00 in0.0 mm 0.00 in0.0 mm 0.00 in0.0 mm
02:30 AM 27.3°F-2.6°C 15.0°F-9.4°C 60% 2.7 mph N4.3 kmh N 12.0 mph19.3 kmh 30.09 in1019.0 mb 0.00 in0.0 mm 0.00 in0.0 mm 0.00 in0.0 mm
02:25 AM 27.3°F-2.6°C 15.0°F-9.4°C 60% 3.0 mph N4.8 kmh N 12.0 mph19.3 kmh 30.09 in1019.0 mb 0.00 in0.0 mm 0.00 in0.0 mm 0.00 in0.0 mm
02:20 AM 27.4°F-2.6°C 15.0°F-9.4°C 61% 2.3 mph N3.7 kmh N 7.0 mph11.3 kmh 30.09 in1019.0 mb 0.00 in0.0 mm 0.00 in0.0 mm 0.00 in0.0 mm
02:15 AM 27.4°F-2.6°C 15.0°F-9.4°C 61% 2.2 mph N3.5 kmh N 7.0 mph11.3 kmh 30.09 in1019.0 mb 0.00 in0.0 mm 0.00 in0.0 mm 0.00 in0.0 mm
02:10 AM 27.4°F-2.6°C 16.0°F-8.9°C 62% 2.3 mph N3.7 kmh N 6.0 mph9.7 kmh 30.09 in1019.0 mb 0.00 in0.0 mm 0.00 in0.0 mm 0.00 in0.0 mm
02:05 AM 27.5°F-2.5°C 16.0°F-8.9°C 62% 1.9 mph N3.1 kmh N 6.0 mph9.7 kmh 30.09 in1019.0 mb 0.00 in0.0 mm 0.00 in0.0 mm 0.00 in0.0 mm
02:00 AM 27.5°F-2.5°C 16.0°F-8.9°C 62% 1.3 mph N2.1 kmh N 7.0 mph11.3 kmh 30.09 in1019.0 mb 0.00 in0.0 mm 0.00 in0.0 mm 0.00 in0.0 mm
01:55 AM 27.5°F-2.5°C 16.0°F-8.9°C 62% 0.8 mph N1.3 kmh N 7.0 mph11.3 kmh 30.09 in1019.0 mb 0.00 in0.0 mm 0.00 in0.0 mm 0.00 in0.0 mm
01:50 AM 27.5°F-2.5°C 16.0°F-8.9°C 62% 0.6 mph N1.0 kmh N 3.0 mph4.8 kmh 30.09 in1019.0 mb 0.00 in0.0 mm 0.00 in0.0 mm 0.00 in0.0 mm
01:45 AM 27.6°F-2.4°C 16.0°F-8.9°C 62% 0.8 mph N1.3 kmh N 4.0 mph6.4 kmh 30.09 in1019.0 mb 0.00 in0.0 mm 0.00 in0.0 mm 0.00 in0.0 mm
01:40 AM 27.6°F-2.4°C 16.0°F-8.9°C 62% 0.7 mph N1.1 kmh N 4.0 mph6.4 kmh 30.09 in1019.0 mb 0.00 in0.0 mm 0.00 in0.0 mm 0.00 in0.0 mm
01:35 AM 27.5°F-2.5°C 16.0°F-8.9°C 62% 0.5 mph N0.8 kmh N 3.0 mph4.8 kmh 30.09 in1019.0 mb 0.00 in0.0 mm 0.00 in0.0 mm 0.00 in0.0 mm
01:30 AM 27.6°F-2.4°C 16.0°F-8.9°C 62% 0.6 mph N1.0 kmh N 3.0 mph4.8 kmh 30.09 in1019.0 mb 0.00 in0.0 mm 0.00 in0.0 mm 0.00 in0.0 mm
01:25 AM 27.5°F-2.5°C 16.0°F-8.9°C 62% 0.5 mph N0.8 kmh N 3.0 mph4.8 kmh 30.09 in1019.0 mb 0.00 in0.0 mm 0.00 in0.0 mm 0.00 in0.0 mm
01:20 AM 27.6°F-2.4°C 16.0°F-8.9°C 62% 0.3 mph N0.5 kmh N 2.0 mph3.2 kmh 30.09 in1019.0 mb 0.00 in0.0 mm 0.00 in0.0 mm 0.00 in0.0 mm
01:15 AM 27.5°F-2.5°C 16.0°F-8.9°C 62% 0.7 mph N1.1 kmh N 3.0 mph4.8 kmh 30.09 in1019.0 mb 0.00 in0.0 mm 0.00 in0.0 mm 0.00 in0.0 mm
01:10 AM 27.5°F-2.5°C 16.0°F-8.9°C 62% 0.7 mph N1.1 kmh N 3.0 mph4.8 kmh 30.10 in1019.3 mb 0.00 in0.0 mm 0.00 in0.0 mm 0.00 in0.0 mm
01:05 AM 27.5°F-2.5°C 16.0°F-8.9°C 61% 0.4 mph N0.6 kmh N 3.0 mph4.8 kmh 30.09 in1019.0 mb 0.00 in0.0 mm 0.00 in0.0 mm 0.00 in0.0 mm
01:00 AM 27.6°F-2.4°C 16.0°F-8.9°C 61% 0.2 mph N0.3 kmh N 2.0 mph3.2 kmh 30.09 in1019.0 mb 0.00 in0.0 mm 0.00 in0.0 mm 0.00 in0.0 mm
12:55 AM 27.6°F-2.4°C 16.0°F-8.9°C 61% Calm Calm 2.0 mph3.2 kmh 30.09 in1019.0 mb 0.00 in0.0 mm 0.00 in0.0 mm 0.00 in0.0 mm
12:50 AM 27.6°F-2.4°C 16.0°F-8.9°C 61% 0.3 mph N0.5 kmh N 3.0 mph4.8 kmh 30.10 in1019.3 mb 0.00 in0.0 mm 0.00 in0.0 mm 0.00 in0.0 mm
12:45 AM 27.6°F-2.4°C 16.0°F-8.9°C 61% 0.3 mph N0.5 kmh N 3.0 mph4.8 kmh 30.10 in1019.3 mb 0.00 in0.0 mm 0.00 in0.0 mm 0.00 in0.0 mm
12:40 AM 27.5°F-2.5°C 16.0°F-8.9°C 61% 0.3 mph N0.5 kmh N 3.0 mph4.8 kmh 30.10 in1019.3 mb 0.00 in0.0 mm 0.00 in0.0 mm 0.00 in0.0 mm
12:35 AM 27.5°F-2.5°C 16.0°F-8.9°C 61% 0.7 mph N1.1 kmh N 4.0 mph6.4 kmh 30.10 in1019.3 mb 0.00 in0.0 mm 0.00 in0.0 mm 0.00 in0.0 mm
12:30 AM 27.4°F-2.6°C 15.0°F-9.4°C 61% 0.8 mph N1.3 kmh N 4.0 mph6.4 kmh 30.10 in1019.3 mb 0.00 in0.0 mm 0.00 in0.0 mm 0.00 in0.0 mm
12:25 AM 27.4°F-2.6°C 15.0°F-9.4°C 61% 1.3 mph N2.1 kmh N 3.0 mph4.8 kmh 30.10 in1019.3 mb 0.00 in0.0 mm 0.00 in0.0 mm 0.00 in0.0 mm
12:20 AM 27.4°F-2.6°C 15.0°F-9.4°C 61% 1.6 mph N2.6 kmh N 4.0 mph6.4 kmh 30.10 in1019.3 mb 0.00 in0.0 mm 0.00 in0.0 mm 0.00 in0.0 mm
12:15 AM 27.3°F-2.6°C 15.0°F-9.4°C 61% 1.6 mph N2.6 kmh N 4.0 mph6.4 kmh 30.10 in1019.3 mb 0.00 in0.0 mm 0.00 in0.0 mm 0.00 in0.0 mm
12:10 AM 27.2°F-2.7°C 15.0°F-9.4°C 61% 1.7 mph N2.7 kmh N 4.0 mph6.4 kmh 30.11 in1019.6 mb 0.00 in0.0 mm 0.00 in0.0 mm 0.00 in0.0 mm
12:05 AM 27.2°F-2.7°C 15.0°F-9.4°C 61% 1.8 mph N2.9 kmh N 4.0 mph6.4 kmh 30.11 in1019.6 mb 0.00 in0.0 mm 0.00 in0.0 mm 0.00 in0.0 mm
12:00 AM 27.1°F-2.7°C 15.0°F-9.4°C 61% 1.8 mph N2.9 kmh N 4.0 mph6.4 kmh 30.11 in1019.6 mb 0.00 in0.0 mm 0.00 in0.0 mm 0.00 in0.0 mm